Weather at İncirlik Air Base

Public forecast

Using degrees Celsius for public forecast. Weather courtesy of forecast.io.

Current aviation weather report (METAR) for İncirlik Air Base

2024/05/26 08:20 (retrieved 32 minutes ago)

LTAG 260820Z 17007KT 9999 SCT035 BKN100 26/17 Q1011 NOSIG RMK 4CU035 6AC100

Aviation forecast (TAF) for İncirlik Air Base

2024/05/26 06:03 (retrieved 3 hours ago)

TAF LTAG 260440Z 2606/2706 VRB02KT 9999 SCT035 TEMPO 2610/2614 BKN035 BECMG 2615/2617 CAVOK BECMG 2620/2622 SCT030 PROB30 TEMPO 2703/2706 -TSRA FEW020CB BKN030